Lake Gardens, New York
Current Conditions -  °F | °C
As of 9:51 PM on Saturday 24 Jan 2015 (Local Time) from KLGA Reporting Station
Few Clouds Few Clouds  
Wind Chill: 27°   Ceiling: Unl
Heat Index: 36°   Visibility: 10mi
Dew Point: 24°   Wind: 14mph
Humidity: 62%   Direction: 310°NW
Pressure: 29.44"   Gusts: NA
Location:  40.7913°N, 73.7412°W
Report Text: KLGA 250251Z 31012KT 10SM FEW250 02/M04 A2944 RMK AO2 SLP970 T00221044 51030 $
Loading
Personal Weather Stations






























Interactive Weather Map New forecast layout! Learn more

10-Day Weather Forecast

Advertisements
Track Severe Weather on mobile